Collins, Georgia
Current Conditions -  °F | °C
As of 3:55 PM on Friday 31 Oct 2014 (Local Time) from KCWV Reporting Station
Scattered Clouds Scattered Clouds  
Wind Chill: 73°   Ceiling: Unl
Heat Index: 73°   Visibility: 10mi
Dew Point: 50°   Wind: 7mph
Humidity: 44%   Direction: 270°W
Pressure: 29.79"   Gusts: NA
Location:  32.18°N, 82.11°W
Report Text: KCWV 311955Z AUTO 27006KT 10SM SCT050 SCT075 23/10 A2979 RMK AO2
Loading
Personal Weather Stations






























Interactive Weather Map
Tropical Storm Tracking
New forecast layout! Learn more

10-Day Weather Forecast

Advertisements
Track Severe Weather on mobile